Time;durP1;ratioP1;P1;durP2;ratioP2;P2;SDS_P1;SDS_P2;PMS_P1;PMS_P2;Temp;Humidity;BMP_temperature;BMP_pressure;BME280_temperature;BME280_humidity;BME280_pressure;Samples;Min_cycle;Max_cycle;Signal;HPM_P1;HPM_P2
2021/06/11 00:00:15;;;;;;;14.20;12.80;;;16.10;99.90;;;;;;4861713;29;20487;-79
2021/06/11 00:02:41;;;;;;;13.03;11.83;;;16.10;99.90;;;;;;4861950;29;20472;-80
2021/06/11 00:05:08;;;;;;;13.33;11.80;;;16.00;99.90;;;;;;4861900;29;20458;-79
2021/06/11 00:07:35;;;;;;;12.90;11.60;;;16.00;99.90;;;;;;4861916;29;20468;-81
2021/06/11 00:10:02;;;;;;;14.00;12.53;;;16.00;99.90;;;;;;4861789;29;20466;-79
2021/06/11 00:12:29;;;;;;;14.80;13.30;;;15.90;99.90;;;;;;4861040;29;20465;-79
2021/06/11 00:14:55;;;;;;;13.97;12.87;;;15.90;99.90;;;;;;4861506;29;20573;-79
2021/06/11 00:17:22;;;;;;;14.90;13.50;;;15.90;99.90;;;;;;4861791;29;20469;-79
2021/06/11 00:19:48;;;;;;;13.50;12.40;;;15.90;99.90;;;;;;4861817;29;20470;-79
2021/06/11 00:22:14;;;;;;;15.73;14.07;;;15.90;99.90;;;;;;4861523;29;20465;-79
2021/06/11 00:24:40;;;;;;;15.20;13.80;;;15.90;99.90;;;;;;4861567;29;20461;-79
2021/06/11 00:27:07;;;;;;;14.30;13.00;;;15.90;99.90;;;;;;4861358;29;20457;-79
2021/06/11 00:29:35;;;;;;;14.90;13.47;;;15.90;99.90;;;;;;4861589;29;20835;-79
2021/06/11 00:32:01;;;;;;;16.70;14.97;;;15.90;99.90;;;;;;4861171;29;20641;-81
2021/06/11 00:34:27;;;;;;;16.47;14.77;;;15.90;99.90;;;;;;4861301;29;20493;-79
2021/06/11 00:36:54;;;;;;;16.47;14.97;;;15.90;99.90;;;;;;4861022;29;20489;-79
2021/06/11 00:39:20;;;;;;;15.90;14.20;;;15.90;99.90;;;;;;4861207;29;20462;-78
2021/06/11 00:41:46;;;;;;;16.87;15.17;;;15.90;99.90;;;;;;4860690;29;20486;-79
2021/06/11 00:44:13;;;;;;;15.03;13.73;;;15.90;99.90;;;;;;4861170;29;20454;-79
2021/06/11 00:46:40;;;;;;;14.80;13.50;;;15.90;99.90;;;;;;4861003;29;20458;-79
2021/06/11 00:49:06;;;;;;;17.60;15.70;;;15.90;99.90;;;;;;4860791;29;20461;-79
2021/06/11 00:51:33;;;;;;;16.10;14.50;;;15.80;99.90;;;;;;4860948;29;20478;-79
2021/06/11 00:53:59;;;;;;;16.80;15.20;;;15.90;99.90;;;;;;4860979;29;20523;-79
2021/06/11 00:56:25;;;;;;;17.60;15.90;;;15.90;99.90;;;;;;4860599;29;20967;-79
2021/06/11 00:58:52;;;;;;;16.67;15.07;;;15.90;99.90;;;;;;4860680;29;20466;-79
2021/06/11 01:01:18;;;;;;;18.33;16.57;;;16.00;99.90;;;;;;4860437;29;20494;-80
2021/06/11 01:03:46;;;;;;;21.20;16.40;;;15.90;99.90;;;;;;4860625;29;20457;-79
2021/06/11 01:06:13;;;;;;;17.57;15.87;;;15.90;99.90;;;;;;4861965;29;20479;-78
2021/06/11 01:08:40;;;;;;;19.33;17.33;;;15.90;99.90;;;;;;4866636;29;20817;-79
2021/06/11 01:11:07;;;;;;;17.17;15.47;;;15.90;99.90;;;;;;4866829;29;20481;-79
2021/06/11 01:13:34;;;;;;;18.60;16.70;;;15.90;99.90;;;;;;4863808;29;20497;-79
2021/06/11 01:16:00;;;;;;;17.63;16.03;;;15.90;99.90;;;;;;4860806;29;20494;-79
2021/06/11 01:18:26;;;;;;;16.43;14.50;;;15.80;99.90;;;;;;4860670;29;20468;-79
2021/06/11 01:20:54;;;;;;;16.20;14.80;;;15.80;99.90;;;;;;4860318;29;20996;-79
2021/06/11 01:23:58;;;;;;;17.50;15.27;;;15.80;99.90;;;;;;4859606;29;20477;-80
2021/06/11 01:26:29;;;;;;;17.43;15.73;;;15.90;99.90;;;;;;4860323;29;20779;-79
2021/06/11 01:28:59;;;;;;;17.70;16.07;;;15.80;99.90;;;;;;4860176;29;20458;-79
2021/06/11 01:31:28;;;;;;;15.97;14.37;;;15.80;99.90;;;;;;4860320;29;20478;-79
2021/06/11 01:34:00;;;;;;;17.30;15.50;;;15.80;99.90;;;;;;4860197;29;20481;-79
2021/06/11 01:36:33;;;;;;;15.90;14.30;;;15.80;99.90;;;;;;4860458;29;21110;-78
2021/06/11 01:39:02;;;;;;;17.67;15.90;;;15.80;99.90;;;;;;4860417;29;20544;-79
2021/06/11 01:41:32;;;;;;;15.93;14.53;;;15.70;99.90;;;;;;4862943;29;20493;-80
2021/06/11 01:43:59;;;;;;;14.97;13.50;;;15.70;99.90;;;;;;4866472;29;20479;-80
2021/06/11 01:46:29;;;;;;;17.07;15.40;;;15.70;99.90;;;;;;4866032;29;20462;-80
2021/06/11 01:48:58;;;;;;;17.13;15.33;;;15.70;99.90;;;;;;4866356;29;20860;-80
2021/06/11 01:51:25;;;;;;;17.93;15.93;;;15.70;99.90;;;;;;4865845;29;20474;-82
2021/06/11 01:53:54;;;;;;;17.60;15.80;;;15.70;99.90;;;;;;4865715;29;20493;-80
2021/06/11 01:56:21;;;;;;;19.73;17.93;;;15.60;99.90;;;;;;4866212;29;20464;-80
2021/06/11 01:58:49;;;;;;;17.57;15.87;;;15.60;99.90;;;;;;4865613;29;20463;-79
2021/06/11 02:01:17;;;;;;;18.20;16.23;;;15.60;99.90;;;;;;4865636;29;20564;-80
2021/06/11 02:03:45;;;;;;;15.53;13.93;;;15.60;99.90;;;;;;4865809;29;20874;-79
2021/06/11 02:06:14;;;;;;;17.60;15.90;;;15.60;99.90;;;;;;4865551;29;20837;-80
2021/06/11 02:08:41;;;;;;;20.00;16.97;;;15.60;99.90;;;;;;4866095;29;20465;-80
2021/06/11 02:11:08;;;;;;;16.93;15.23;;;15.60;99.90;;;;;;4865976;29;20473;-80
2021/06/11 02:13:34;;;;;;;17.90;16.20;;;15.60;99.90;;;;;;4865363;29;20492;-80
2021/06/11 02:16:03;;;;;;;17.10;15.37;;;15.60;99.90;;;;;;4865563;29;20460;-80
2021/06/11 02:18:30;;;;;;;15.70;14.10;;;15.60;99.90;;;;;;4865827;29;20465;-79
2021/06/11 02:20:57;;;;;;;17.80;16.10;;;15.60;99.90;;;;;;4865790;29;20565;-80
2021/06/11 02:23:23;;;;;;;18.37;16.33;;;15.50;99.90;;;;;;4866065;29;20834;-79
2021/06/11 02:25:50;;;;;;;17.23;15.73;;;15.50;99.90;;;;;;4865711;29;20507;-79
2021/06/11 02:28:17;;;;;;;17.70;16.00;;;15.50;99.90;;;;;;4865521;29;20467;-80
2021/06/11 02:30:44;;;;;;;17.83;15.93;;;15.50;99.90;;;;;;4865901;29;20477;-79
2021/06/11 02:33:13;;;;;;;17.40;15.80;;;15.50;99.90;;;;;;4865400;29;20524;-80
2021/06/11 02:35:39;;;;;;;16.77;15.10;;;15.50;99.90;;;;;;4868005;29;20957;-80
2021/06/11 02:38:06;;;;;;;17.43;15.63;;;15.50;99.90;;;;;;4869368;29;20941;-79
2021/06/11 02:40:32;;;;;;;17.63;15.93;;;15.50;99.90;;;;;;4869197;29;20490;-80
2021/06/11 02:43:02;;;;;;;16.47;14.90;;;15.40;99.90;;;;;;4869576;29;20461;-80
2021/06/11 02:45:34;;;;;;;15.70;14.30;;;15.40;99.90;;;;;;4868921;29;20491;-80
2021/06/11 02:48:18;;;;;;;18.73;16.17;;;15.40;99.90;;;;;;4868886;29;20457;-80
2021/06/11 02:50:50;;;;;;;17.50;15.90;;;15.40;99.90;;;;;;4868742;29;21196;-79
2021/06/11 02:53:25;;;;;;;17.87;16.03;;;15.40;99.90;;;;;;4867301;29;20539;-79
2021/06/11 02:55:55;;;;;;;16.47;14.77;;;15.40;99.90;;;;;;4869183;29;20460;-80
2021/06/11 02:58:25;;;;;;;17.27;15.67;;;15.30;99.90;;;;;;4869390;29;20465;-80
2021/06/11 03:00:53;;;;;;;16.63;14.97;;;15.30;99.90;;;;;;4868786;29;20480;-80
2021/06/11 03:03:23;;;;;;;16.93;15.13;;;15.30;99.90;;;;;;4868808;29;20464;-80
2021/06/11 03:05:54;;;;;;;18.30;16.60;;;15.30;99.90;;;;;;4869448;29;20528;-80
2021/06/11 03:08:28;;;;;;;17.27;15.73;;;15.30;99.90;;;;;;4868630;29;20464;-80
2021/06/11 03:10:58;;;;;;;17.83;16.13;;;15.30;99.90;;;;;;4868583;29;20914;-79
2021/06/11 03:13:26;;;;;;;16.03;14.50;;;15.30;99.90;;;;;;4868560;29;20995;-80
2021/06/11 03:15:53;;;;;;;18.00;16.20;;;15.30;99.90;;;;;;4868654;29;20460;-79
2021/06/11 03:18:29;;;;;;;18.30;16.40;;;15.30;99.90;;;;;;4868296;29;20457;-80
2021/06/11 03:20:59;;;;;;;19.50;17.50;;;15.20;99.90;;;;;;4868054;29;20496;-80
2021/06/11 03:23:30;;;;;;;16.73;14.87;;;15.20;99.90;;;;;;4867683;29;20457;-80
2021/06/11 03:26:01;;;;;;;17.90;16.10;;;15.20;99.90;;;;;;4868544;29;20517;-80
2021/06/11 03:28:35;;;;;;;17.80;15.90;;;15.20;99.90;;;;;;4868002;29;20489;-80
2021/06/11 03:31:04;;;;;;;19.23;17.23;;;15.20;99.90;;;;;;4868275;29;20486;-81
2021/06/11 03:33:36;;;;;;;21.33;19.13;;;15.20;99.90;;;;;;4868183;29;20488;-80
2021/06/11 03:36:08;;;;;;;19.90;17.90;;;15.20;99.90;;;;;;4868175;29;20461;-80
2021/06/11 03:38:38;;;;;;;18.57;16.60;;;15.20;99.90;;;;;;4868673;29;20536;-80
2021/06/11 03:41:05;;;;;;;17.30;15.60;;;15.20;99.90;;;;;;4868140;29;20477;-80
2021/06/11 03:43:32;;;;;;;19.73;17.80;;;15.20;99.90;;;;;;4868464;29;20484;-79
2021/06/11 03:46:00;;;;;;;22.30;19.87;;;15.20;99.90;;;;;;4867511;29;20558;-80
2021/06/11 03:48:29;;;;;;;21.50;18.87;;;15.20;99.90;;;;;;4867922;29;20485;-80
2021/06/11 03:50:58;;;;;;;20.80;18.77;;;15.20;99.90;;;;;;4868339;29;20474;-80
2021/06/11 03:53:25;;;;;;;20.00;17.90;;;15.20;99.90;;;;;;4867568;29;20450;-80
2021/06/11 03:56:00;;;;;;;19.23;17.23;;;15.20;99.90;;;;;;4867625;29;20462;-80
2021/06/11 03:58:30;;;;;;;19.33;17.57;;;15.20;99.90;;;;;;4867528;29;20470;-80
2021/06/11 04:00:59;;;;;;;20.63;18.53;;;15.20;99.90;;;;;;4867968;29;20496;-80
2021/06/11 04:03:26;;;;;;;19.47;17.67;;;15.20;99.90;;;;;;4867578;29;20489;-79
2021/06/11 04:06:00;;;;;;;18.30;16.60;;;15.20;99.90;;;;;;4867693;29;20469;-80
2021/06/11 04:08:33;;;;;;;20.07;18.17;;;15.30;99.90;;;;;;4867071;29;20467;-80
2021/06/11 04:11:00;;;;;;;18.90;16.97;;;15.20;99.90;;;;;;4867670;29;20477;-80
2021/06/11 04:13:37;;;;;;;18.17;16.43;;;15.30;99.90;;;;;;4867127;29;20833;-80
2021/06/11 04:16:07;;;;;;;20.43;18.23;;;15.30;99.90;;;;;;4868041;29;20552;-80
2021/06/11 04:18:35;;;;;;;18.90;17.10;;;15.30;99.90;;;;;;4868034;29;20484;-79
2021/06/11 04:21:03;;;;;;;18.23;16.47;;;15.30;99.90;;;;;;4867391;29;20509;-79
2021/06/11 04:23:34;;;;;;;18.50;16.50;;;15.30;99.90;;;;;;4867328;29;20472;-80
2021/06/11 04:26:02;;;;;;;21.13;18.93;;;15.40;99.90;;;;;;4867688;29;20472;-80
2021/06/11 04:28:31;;;;;;;16.40;14.90;;;15.30;99.90;;;;;;4867656;29;20457;-80
2021/06/11 04:30:58;;;;;;;21.07;16.60;;;15.40;99.90;;;;;;4867221;29;20508;-80
2021/06/11 04:33:27;;;;;;;18.00;16.30;;;15.40;99.90;;;;;;4867125;29;20460;-80
2021/06/11 04:35:54;;;;;;;16.00;14.43;;;15.30;99.90;;;;;;4867117;29;20547;-80
2021/06/11 04:38:21;;;;;;;19.40;15.40;;;15.40;99.90;;;;;;4867014;29;20453;-79
2021/06/11 04:40:49;;;;;;;16.47;14.83;;;15.40;99.90;;;;;;4867194;29;20569;-80
2021/06/11 04:43:16;;;;;;;18.87;15.70;;;15.40;99.90;;;;;;4866862;29;20635;-80
2021/06/11 04:45:42;;;;;;;16.60;15.00;;;15.40;99.90;;;;;;4867213;29;20453;-80
2021/06/11 04:48:09;;;;;;;16.13;14.63;;;15.40;99.90;;;;;;4866572;29;20478;-80
2021/06/11 04:50:35;;;;;;;17.70;15.90;;;15.50;99.90;;;;;;4866935;29;20478;-80
2021/06/11 04:53:02;;;;;;;15.57;14.03;;;15.50;99.90;;;;;;4866775;29;20884;-80
2021/06/11 04:55:28;;;;;;;15.73;14.30;;;15.50;99.90;;;;;;4866703;29;20497;-79
2021/06/11 04:57:56;;;;;;;14.90;13.40;;;15.50;99.90;;;;;;4866959;29;20460;-79
2021/06/11 05:00:24;;;;;;;15.10;13.80;;;15.50;99.90;;;;;;4866561;29;20488;-80
2021/06/11 05:02:51;;;;;;;16.97;15.20;;;15.60;99.90;;;;;;4866728;29;20490;-79
2021/06/11 05:05:17;;;;;;;16.97;15.17;;;15.60;99.90;;;;;;4866932;29;20823;-80
2021/06/11 05:07:43;;;;;;;15.07;13.67;;;15.60;99.90;;;;;;4867049;29;20474;-81
2021/06/11 05:10:12;;;;;;;16.33;14.63;;;15.70;99.90;;;;;;4866606;29;20461;-80
2021/06/11 05:12:38;;;;;;;15.43;13.93;;;15.70;99.90;;;;;;4866253;29;20502;-80
2021/06/11 05:15:07;;;;;;;16.10;14.57;;;15.70;99.90;;;;;;4866169;29;20489;-80
2021/06/11 05:17:33;;;;;;;16.13;14.37;;;15.70;99.90;;;;;;4866991;29;20457;-80
2021/06/11 05:19:59;;;;;;;15.90;14.47;;;15.80;99.90;;;;;;4866246;29;20929;-80
2021/06/11 05:22:26;;;;;;;15.67;14.07;;;15.90;99.90;;;;;;4866782;29;20492;-80
2021/06/11 05:24:52;;;;;;;16.40;14.20;;;16.00;99.90;;;;;;4866495;29;20457;-80
2021/06/11 05:27:18;;;;;;;16.10;14.40;;;16.00;99.90;;;;;;4867022;29;20461;-80
2021/06/11 05:29:45;;;;;;;14.73;13.40;;;16.00;99.90;;;;;;4866721;29;20450;-80
2021/06/11 05:32:12;;;;;;;14.23;12.83;;;16.10;99.90;;;;;;4865977;29;20476;-80
2021/06/11 05:34:38;;;;;;;14.70;13.27;;;16.10;99.90;;;;;;4870211;29;20499;-79
2021/06/11 05:37:05;;;;;;;14.23;12.70;;;16.20;99.90;;;;;;4873846;29;20480;-79
2021/06/11 05:39:32;;;;;;;15.63;14.23;;;16.20;99.90;;;;;;4873364;29;20842;-80
2021/06/11 05:41:59;;;;;;;14.90;13.27;;;16.30;99.90;;;;;;4865895;29;20486;-80
2021/06/11 05:44:25;;;;;;;14.33;13.03;;;16.40;99.90;;;;;;4866579;29;20908;-79
2021/06/11 05:46:52;;;;;;;14.63;13.13;;;16.40;99.90;;;;;;4865658;29;20855;-80
2021/06/11 05:49:19;;;;;;;14.93;12.43;;;16.50;99.90;;;;;;4866017;29;20457;-81
2021/06/11 05:51:46;;;;;;;13.93;12.63;;;16.60;99.90;;;;;;4866095;29;20480;-80
2021/06/11 05:54:12;;;;;;;14.70;13.17;;;16.60;99.90;;;;;;4866208;29;20521;-80
2021/06/11 05:56:39;;;;;;;16.40;13.10;;;16.70;99.90;;;;;;4866777;29;20454;-80
2021/06/11 05:59:05;;;;;;;13.23;12.13;;;16.80;99.90;;;;;;4866881;29;20469;-80
2021/06/11 06:01:31;;;;;;;14.30;12.90;;;16.90;99.90;;;;;;4866117;29;20514;-80
2021/06/11 06:03:58;;;;;;;13.07;11.77;;;17.00;99.90;;;;;;4865970;29;20454;-79
2021/06/11 06:06:25;;;;;;;13.47;12.10;;;17.10;99.90;;;;;;4866907;29;20966;-81
2021/06/11 06:08:52;;;;;;;14.30;13.10;;;17.10;99.90;;;;;;4866489;29;20461;-81
2021/06/11 06:11:18;;;;;;;17.20;14.00;;;17.20;99.90;;;;;;4870409;29;20573;-81
2021/06/11 06:13:44;;;;;;;14.87;13.57;;;17.30;99.90;;;;;;4869658;29;20496;-82
2021/06/11 06:16:11;;;;;;;14.00;12.80;;;17.40;99.90;;;;;;4869991;29;20480;-82
2021/06/11 06:18:38;;;;;;;15.00;13.30;;;17.40;99.90;;;;;;4869855;29;20518;-82
2021/06/11 06:21:05;;;;;;;15.77;14.27;;;17.50;99.90;;;;;;4869755;29;20490;-82
2021/06/11 06:23:32;;;;;;;14.33;13.13;;;17.60;99.90;;;;;;4869880;29;20459;-82
2021/06/11 06:25:59;;;;;;;14.07;12.80;;;17.70;99.90;;;;;;4869724;29;20462;-82
2021/06/11 06:28:25;;;;;;;14.43;13.13;;;17.80;99.90;;;;;;4870271;29;20451;-82
2021/06/11 06:30:51;;;;;;;15.37;13.87;;;17.90;99.90;;;;;;4870385;29;20624;-81
2021/06/11 06:33:18;;;;;;;15.73;14.20;;;18.00;99.90;;;;;;4869744;29;20478;-81
2021/06/11 06:35:44;;;;;;;13.73;12.50;;;18.00;99.90;;;;;;4870104;29;20490;-81
2021/06/11 06:38:13;;;;;;;15.87;14.43;;;18.10;99.90;;;;;;4871358;29;20914;-81
2021/06/11 06:40:59;;;;;;;14.20;12.87;;;18.20;99.90;;;;;;4873755;29;20518;-81
2021/06/11 06:43:26;;;;;;;15.07;13.80;;;18.30;99.90;;;;;;4874694;29;20456;-81
2021/06/11 06:45:52;;;;;;;15.13;13.80;;;18.40;99.90;;;;;;4878429;29;20544;-81
2021/06/11 06:48:18;;;;;;;14.43;13.20;;;18.50;99.90;;;;;;4879340;29;20869;-81
2021/06/11 06:50:44;;;;;;;15.57;14.07;;;18.50;99.90;;;;;;4874664;29;20460;-81
2021/06/11 06:53:11;;;;;;;14.40;13.10;;;18.60;99.90;;;;;;4877937;29;20874;-81
2021/06/11 06:55:38;;;;;;;16.47;14.80;;;18.70;99.90;;;;;;4877301;29;20501;-81
2021/06/11 06:58:06;;;;;;;15.30;13.97;;;18.90;99.90;;;;;;4875726;29;20542;-81
2021/06/11 07:00:33;;;;;;;14.70;13.40;;;19.00;99.90;;;;;;4870235;29;20523;-82
2021/06/11 07:03:00;;;;;;;14.60;13.20;;;19.10;99.90;;;;;;4868766;29;20472;-81
2021/06/11 07:05:27;;;;;;;15.30;13.80;;;19.20;99.90;;;;;;4874286;29;20460;-81
2021/06/11 07:07:53;;;;;;;14.70;13.17;;;19.30;99.90;;;;;;4874997;29;20460;-81
2021/06/11 07:10:20;;;;;;;13.53;12.23;;;19.30;99.90;;;;;;4868997;29;20480;-82
2021/06/11 07:12:46;;;;;;;13.60;12.30;;;19.50;99.90;;;;;;4869695;29;20463;-82
2021/06/11 07:15:14;;;;;;;15.00;13.60;;;19.60;99.90;;;;;;4869270;29;20860;-81
2021/06/11 07:17:41;;;;;;;14.27;12.97;;;19.70;99.90;;;;;;4869672;29;20463;-82
2021/06/11 07:20:09;;;;;;;13.80;12.57;;;19.80;99.90;;;;;;4868245;29;20460;-80
2021/06/11 07:22:35;;;;;;;13.77;12.47;;;20.00;99.90;;;;;;4868210;29;20523;-80
2021/06/11 07:25:04;;;;;;;14.33;13.13;;;20.10;99.90;;;;;;4869278;29;20445;-83
2021/06/11 07:27:32;;;;;;;15.00;13.50;;;20.20;99.90;;;;;;4869979;29;20537;-82
2021/06/11 07:29:58;;;;;;;17.03;13.27;;;20.30;99.90;;;;;;4869193;29;20820;-83
2021/06/11 08:00:22;;;;;;;14.40;13.07;;;21.60;99.90;;;;;;4591492;31;20613;-83
2021/06/11 08:02:57;;;;;;;14.50;13.20;;;21.70;99.90;;;;;;4645556;30;20476;-86
2021/06/11 08:05:24;;;;;;;14.77;13.47;;;21.80;99.90;;;;;;4701278;30;20602;-85
2021/06/11 08:07:51;;;;;;;13.03;11.93;;;21.90;99.90;;;;;;4848013;29;20519;-86
2021/06/11 08:10:24;;;;;;;15.53;11.87;;;22.00;99.90;;;;;;4851592;29;21056;-86
2021/06/11 08:13:26;;;;;;;;;;;;;;;;;;;;;
2021/06/11 08:16:25;;;;;;;12.03;11.03;;;22.20;99.90;;;;;;4846638;29;20589;-86
2021/06/11 08:18:52;;;;;;;13.10;11.90;;;22.40;99.90;;;;;;4850390;29;20444;-86
2021/06/11 08:21:56;;;;;;;;;;;;;;;;;;;;;
2021/06/11 08:40:02;;;;;;;12.10;11.10;;;23.00;99.90;;;;;;4714619;30;20811;-85
2021/06/11 08:42:30;;;;;;;11.90;11.00;;;23.10;99.90;;;;;;4794940;29;20865;-87
2021/06/11 08:44:58;;;;;;;12.67;11.57;;;23.20;99.90;;;;;;4833090;29;20467;-86
2021/06/11 08:47:27;;;;;;;12.80;11.60;;;23.30;99.90;;;;;;4850302;29;20449;-86
2021/06/11 08:49:55;;;;;;;11.63;10.77;;;23.40;99.90;;;;;;4849291;29;20987;-86
2021/06/11 08:52:22;;;;;;;13.07;12.07;;;23.50;99.90;;;;;;4849469;29;20820;-86
2021/06/11 08:54:51;;;;;;;12.33;11.37;;;23.50;99.90;;;;;;4850542;29;20561;-85
2021/06/11 08:57:21;;;;;;;12.77;11.77;;;23.60;99.90;;;;;;4850536;29;20468;-86
2021/06/11 08:59:48;;;;;;;12.17;11.27;;;23.60;99.90;;;;;;4851036;29;20517;-85
2021/06/11 09:02:14;;;;;;;12.73;11.70;;;23.60;99.90;;;;;;4849260;29;20486;-87
2021/06/11 09:04:42;;;;;;;11.00;10.10;;;23.70;99.90;;;;;;4851152;29;20947;-87
2021/06/11 09:07:33;;;;;;;13.40;12.20;;;23.90;99.90;;;;;;4852729;29;20518;-87
2021/06/11 09:14:04;;;;;;;15.57;14.17;;;24.20;99.90;;;;;;4778771;29;20472;-85
2021/06/11 09:16:47;;;;;;;14.27;13.10;;;24.40;99.90;;;;;;4845642;29;20462;-85
2021/06/11 09:19:34;;;;;;;12.13;11.03;;;24.40;99.90;;;;;;4852081;29;20442;-85
2021/06/11 09:22:35;;;;;;;12.60;11.60;;;24.50;99.90;;;;;;4854168;29;20484;-85
2021/06/11 09:25:36;;;;;;;12.93;11.83;;;24.80;99.90;;;;;;4854364;29;20455;-86
2021/06/11 09:31:41;;;;;;;;;;;;;;;;;;;;;
2021/06/11 09:34:28;;;;;;;13.47;12.40;;;25.60;98.70;;;;;;4851774;29;20455;-86
2021/06/11 09:40:27;;;;;;;14.73;13.53;;;25.90;97.60;;;;;;4836284;29;20510;-85
2021/06/11 09:43:29;;;;;;;12.60;11.57;;;26.10;97.70;;;;;;4771989;30;20515;-85
2021/06/11 09:46:10;;;;;;;14.03;12.77;;;26.30;98.50;;;;;;4748582;30;20475;-85
2021/06/11 09:48:42;;;;;;;13.33;12.33;;;26.50;97.60;;;;;;4801519;29;20897;-83
2021/06/11 09:51:13;;;;;;;12.93;12.03;;;26.80;97.20;;;;;;4838892;29;20485;-87
2021/06/11 09:53:41;;;;;;;11.40;10.60;;;26.80;95.70;;;;;;4849148;29;20452;-85
2021/06/11 09:56:18;;;;;;;11.33;10.53;;;27.00;95.50;;;;;;4847622;29;20501;-86
2021/06/11 09:58:49;;;;;;;13.30;12.30;;;27.20;95.00;;;;;;4846504;29;20473;-85
2021/06/11 10:01:16;;;;;;;10.80;10.03;;;27.40;94.40;;;;;;4845177;29;20468;-86
2021/06/11 10:04:12;;;;;;;13.10;12.10;;;27.60;94.90;;;;;;4858580;29;20453;-85
2021/06/11 10:07:03;;;;;;;12.80;11.80;;;27.80;94.60;;;;;;4857409;29;20438;-87
2021/06/11 10:09:31;;;;;;;13.10;11.93;;;28.00;94.00;;;;;;4852769;29;20553;-84
2021/06/11 10:12:29;;;;;;;11.10;10.30;;;28.20;93.10;;;;;;4870821;29;20483;-87
2021/06/11 10:15:39;;;;;;;;;;;;;;;;;;;;;
2021/06/11 10:18:15;;;;;;;10.77;10.07;;;28.70;92.20;;;;;;4852203;29;20467;-86
2021/06/11 10:20:48;;;;;;;13.07;12.07;;;28.80;90.20;;;;;;4862997;29;20482;-86
2021/06/11 10:24:29;;;;;;;;;;;;;;;;;;;;;
2021/06/11 10:27:36;;;;;;;11.73;10.93;;;28.80;88.30;;;;;;4751482;30;20475;-86
2021/06/11 10:30:08;;;;;;;12.20;11.30;;;28.80;90.20;;;;;;4801613;29;21012;-84
2021/06/11 10:47:39;;;;;;;;;;;;;;;;;;;;;
2021/06/11 11:13:06;;;;;;;12.93;11.90;;;27.20;86.40;;;;;;4723767;30;21005;-85
2021/06/11 11:15:58;;;;;;;11.63;10.80;;;27.50;84.60;;;;;;4830699;29;20490;-85
2021/06/11 11:18:43;;;;;;;11.07;10.37;;;28.20;86.30;;;;;;4865882;29;20461;-84
2021/06/11 11:21:23;;;;;;;12.43;11.40;;;29.10;85.00;;;;;;4876778;29;20487;-84
2021/06/11 11:23:51;;;;;;;13.73;12.73;;;29.90;83.70;;;;;;4864916;29;20454;-84
2021/06/11 11:26:17;;;;;;;12.57;11.77;;;30.70;76.40;;;;;;4863963;29;20466;-83
2021/06/11 11:28:46;;;;;;;13.10;12.10;;;31.40;71.80;;;;;;4864311;29;20460;-84
2021/06/11 11:31:12;;;;;;;12.10;11.30;;;31.70;69.00;;;;;;4863822;29;20556;-84
2021/06/11 11:33:39;;;;;;;11.73;10.93;;;32.00;68.80;;;;;;4863845;29;20459;-87
2021/06/11 11:36:07;;;;;;;12.10;11.30;;;32.50;70.70;;;;;;4864950;29;20524;-84
2021/06/11 11:38:33;;;;;;;10.67;10.03;;;33.20;66.90;;;;;;4863941;29;20471;-84
2021/06/11 11:40:59;;;;;;;12.43;11.53;;;33.80;62.80;;;;;;4863840;29;20480;-85
2021/06/11 12:04:30;;;;;;;13.70;12.70;;;30.10;66.90;;;;;;4693478;30;20467;-84
2021/06/11 12:06:56;;;;;;;13.10;12.30;;;29.90;66.10;;;;;;4729845;30;20567;-85
2021/06/11 12:09:52;;;;;;;12.40;11.50;;;30.20;64.50;;;;;;4770927;30;20493;-85
2021/06/11 12:12:23;;;;;;;10.67;9.87;;;30.70;63.20;;;;;;4765891;30;20860;-84
2021/06/11 12:14:54;;;;;;;11.80;11.10;;;31.30;62.60;;;;;;4833869;29;20504;-84
2021/06/11 12:24:18;;;;;;;;;;;;;;;;;;;;;
2021/06/11 12:33:49;;;;;;;9.90;9.30;;;36.20;49.10;;;;;;4708393;30;20457;-86
2021/06/11 12:52:55;;;;;;;9.37;8.77;;;36.20;47.50;;;;;;4791160;29;20452;-85
2021/06/11 12:55:41;;;;;;;9.17;8.30;;;36.40;49.60;;;;;;4878677;29;20998;-83
2021/06/11 12:58:49;;;;;;;9.50;9.00;;;37.00;46.10;;;;;;4855894;29;20465;-84
2021/06/11 13:01:20;;;;;;;8.60;8.00;;;37.80;42.80;;;;;;4805267;29;20600;-84
2021/06/11 13:03:46;;;;;;;9.67;9.10;;;38.60;42.20;;;;;;4844233;29;20956;-84
2021/06/11 13:06:17;;;;;;;9.23;8.63;;;39.20;41.40;;;;;;4863177;29;20454;-85
2021/06/11 13:08:54;;;;;;;8.13;7.63;;;39.40;40.20;;;;;;4876896;29;20543;-84
2021/06/11 13:11:41;;;;;;;8.13;7.67;;;39.80;39.30;;;;;;4864542;29;20465;-85
2021/06/11 13:14:20;;;;;;;8.37;7.77;;;39.60;36.40;;;;;;4864457;29;20489;-84
2021/06/11 13:16:46;;;;;;;8.27;7.77;;;38.50;36.90;;;;;;4860017;29;20481;-82
2021/06/11 13:19:12;;;;;;;9.20;8.60;;;37.30;38.40;;;;;;4861457;29;20541;-83
2021/06/11 13:21:39;;;;;;;9.03;8.43;;;36.80;40.50;;;;;;4869951;29;20483;-82
2021/06/11 13:24:08;;;;;;;8.50;7.80;;;36.50;42.90;;;;;;4880248;29;20468;-84
2021/06/11 13:26:34;;;;;;;7.80;7.30;;;36.30;41.60;;;;;;4866842;29;20940;-82
2021/06/11 13:29:01;;;;;;;8.57;8.07;;;36.10;41.60;;;;;;4861150;29;20472;-82
2021/06/11 13:31:27;;;;;;;7.03;6.53;;;35.80;41.80;;;;;;4861255;29;20577;-85
2021/06/11 13:33:54;;;;;;;8.77;8.17;;;35.90;42.10;;;;;;4865524;29;21028;-84
2021/06/11 13:36:20;;;;;;;6.87;6.57;;;35.90;41.00;;;;;;4872288;29;21137;-82
2021/06/11 13:38:47;;;;;;;8.10;7.60;;;35.70;40.60;;;;;;4859786;29;20472;-82
2021/06/11 13:41:14;;;;;;;7.80;7.30;;;35.80;40.30;;;;;;4859570;29;21022;-82
2021/06/11 13:43:42;;;;;;;7.10;6.67;;;35.50;40.20;;;;;;4860044;29;20461;-82
2021/06/11 13:46:08;;;;;;;7.03;6.60;;;35.40;39.30;;;;;;4860759;29;20495;-83
2021/06/11 13:48:34;;;;;;;6.77;6.47;;;35.50;41.20;;;;;;4862346;29;20470;-82
2021/06/11 13:51:00;;;;;;;7.20;6.70;;;36.00;41.90;;;;;;4861204;29;20477;-82
2021/06/11 13:53:27;;;;;;;6.40;6.10;;;36.90;41.10;;;;;;4860792;29;20529;-83
2021/06/11 13:55:53;;;;;;;7.77;7.17;;;37.70;39.30;;;;;;4860460;29;20517;-81
2021/06/11 13:58:21;;;;;;;6.70;6.30;;;38.20;38.40;;;;;;4860132;29;20468;-82
2021/06/11 14:00:49;;;;;;;7.30;6.90;;;38.60;37.90;;;;;;4875570;29;20979;-82
2021/06/11 14:03:15;;;;;;;7.20;6.80;;;38.70;34.90;;;;;;4861062;29;20930;-82
2021/06/11 14:05:41;;;;;;;8.17;7.67;;;38.20;35.50;;;;;;4860826;29;20458;-82
2021/06/11 14:08:07;;;;;;;8.07;7.67;;;38.20;36.80;;;;;;4860437;29;20457;-82
2021/06/11 14:10:34;;;;;;;7.60;7.10;;;38.00;36.10;;;;;;4860724;29;20481;-82
2021/06/11 14:13:00;;;;;;;7.30;6.90;;;37.80;36.20;;;;;;4865096;29;20461;-80
2021/06/11 14:15:28;;;;;;;7.00;6.50;;;38.30;38.20;;;;;;4878635;29;21122;-80
2021/06/11 14:17:55;;;;;;;7.37;6.77;;;38.60;36.00;;;;;;4860932;29;20468;-82
2021/06/11 14:20:22;;;;;;;6.47;6.17;;;38.70;35.40;;;;;;4863268;29;20649;-83
2021/06/11 14:22:48;;;;;;;7.90;7.40;;;38.50;35.20;;;;;;4877284;29;20504;-82
2021/06/11 14:25:17;;;;;;;7.33;6.93;;;38.00;34.90;;;;;;4869190;29;20461;-82
2021/06/11 14:27:43;;;;;;;8.40;7.90;;;37.60;36.80;;;;;;4860471;29;20461;-83
2021/06/11 14:30:11;;;;;;;6.93;6.53;;;37.60;35.50;;;;;;4860013;29;20875;-81
2021/06/11 14:32:39;;;;;;;7.10;6.70;;;37.70;36.00;;;;;;4864259;29;20450;-82
2021/06/11 14:35:07;;;;;;;6.47;6.07;;;37.70;36.70;;;;;;4864778;29;20497;-82
2021/06/11 14:37:33;;;;;;;7.00;6.40;;;37.70;36.10;;;;;;4864587;29;20472;-82
2021/06/11 14:39:59;;;;;;;6.20;5.80;;;38.00;34.70;;;;;;4864718;29;20486;-82
2021/06/11 14:42:26;;;;;;;6.50;6.10;;;38.00;35.00;;;;;;4865027;29;20468;-82
2021/06/11 14:44:52;;;;;;;6.97;6.57;;;37.80;35.10;;;;;;4864790;29;20461;-82
2021/06/11 14:47:18;;;;;;;6.70;6.30;;;37.80;35.20;;;;;;4864832;29;20453;-81
2021/06/11 14:49:48;;;;;;;7.40;6.90;;;38.10;34.00;;;;;;4865509;29;20464;-81
2021/06/11 14:52:16;;;;;;;7.03;6.63;;;38.30;34.60;;;;;;4865080;29;20488;-81
2021/06/11 14:54:52;;;;;;;6.70;6.30;;;38.50;34.50;;;;;;4864802;29;20827;-82
2021/06/11 14:57:18;;;;;;;6.77;6.37;;;38.50;34.80;;;;;;4865022;29;20505;-83
2021/06/11 14:59:45;;;;;;;6.90;6.50;;;39.10;35.50;;;;;;4865362;29;20541;-85
2021/06/11 15:02:21;;;;;;;7.90;7.40;;;39.00;34.00;;;;;;4865130;29;20481;-87
2021/06/11 15:04:50;;;;;;;7.17;6.77;;;38.70;34.00;;;;;;4863436;29;20797;-84
2021/06/11 15:07:17;;;;;;;8.70;8.17;;;38.70;35.90;;;;;;4865982;29;20471;-84
2021/06/11 15:09:45;;;;;;;8.30;7.57;;;38.70;36.00;;;;;;4865691;29;20453;-85
2021/06/11 15:12:11;;;;;;;7.87;7.47;;;38.50;36.20;;;;;;4865204;29;20469;-83
2021/06/11 15:14:37;;;;;;;7.73;7.23;;;38.70;36.90;;;;;;4861724;29;20453;-86
2021/06/11 15:17:04;;;;;;;8.47;8.00;;;39.00;35.70;;;;;;4867385;29;20535;-86